createdAt,value
2023-04-21T00:01:23.459Z,8.80
2023-04-21T00:03:52.149Z,8.70
2023-04-21T00:06:23.137Z,8.60
2023-04-21T00:08:51.969Z,8.50
2023-04-21T00:11:20.864Z,8.40
2023-04-21T00:13:50.828Z,8.30
2023-04-21T00:16:19.406Z,8.20
2023-04-21T00:18:49.036Z,8.20
2023-04-21T00:21:17.917Z,8.10
2023-04-21T00:23:47.481Z,8.10
2023-04-21T00:26:16.146Z,8.10
2023-04-21T00:28:44.841Z,8.00
2023-04-21T00:31:14.870Z,8.10
2023-04-21T00:33:43.463Z,8.10
2023-04-21T00:36:12.063Z,8.10
2023-04-21T00:38:40.685Z,8.00
2023-04-21T00:41:09.849Z,7.90
2023-04-21T00:43:38.699Z,7.90
2023-04-21T00:46:07.337Z,7.80
2023-04-21T00:48:37.444Z,7.80
2023-04-21T00:51:06.135Z,7.70
2023-04-21T00:53:34.762Z,7.60
2023-04-21T00:56:03.464Z,7.60
2023-04-21T00:58:34.245Z,7.60
2023-04-21T01:01:03.002Z,7.50
2023-04-21T01:03:32.489Z,7.50
2023-04-21T01:06:02.890Z,7.40
2023-04-21T01:08:31.818Z,7.30
2023-04-21T01:11:00.446Z,7.20
2023-04-21T01:13:29.178Z,7.20
2023-04-21T01:15:57.824Z,7.10
2023-04-21T01:18:26.523Z,7.10
2023-04-21T01:20:55.136Z,7.00
2023-04-21T01:23:25.267Z,7.00
2023-04-21T01:25:55.822Z,7.10
2023-04-21T01:28:24.855Z,7.00
2023-04-21T01:30:53.890Z,7.10
2023-04-21T01:33:23.097Z,7.10
2023-04-21T01:35:51.912Z,7.10
2023-04-21T01:38:20.643Z,7.10
2023-04-21T01:40:53.153Z,7.00
2023-04-21T01:43:24.506Z,7.10
2023-04-21T01:45:53.283Z,7.10
2023-04-21T01:48:22.004Z,7.00
2023-04-21T01:50:50.528Z,7.00
2023-04-21T01:53:19.145Z,6.90
2023-04-21T01:55:47.698Z,6.90
2023-04-21T01:58:17.620Z,6.90
2023-04-21T02:00:46.131Z,6.90
2023-04-21T02:03:14.768Z,6.80
2023-04-21T02:05:43.797Z,6.80
2023-04-21T02:08:12.369Z,6.90
2023-04-21T02:10:41.171Z,6.80
2023-04-21T02:13:09.762Z,6.60
2023-04-21T02:15:40.832Z,6.50
2023-04-21T02:18:09.579Z,6.50
2023-04-21T02:20:38.982Z,6.40
2023-04-21T02:23:07.522Z,6.40
2023-04-21T02:25:36.269Z,6.40
2023-04-21T02:28:04.982Z,6.30
2023-04-21T02:30:34.957Z,6.20
2023-04-21T02:33:05.029Z,6.20
2023-04-21T02:35:34.843Z,6.10
2023-04-21T02:38:07.421Z,6.10
2023-04-21T02:40:36.055Z,6.10
2023-04-21T02:43:04.728Z,6.10
2023-04-21T02:45:33.370Z,6.00
2023-04-21T02:48:02.073Z,6.00
2023-04-21T02:50:32.182Z,6.00
2023-04-21T02:53:00.890Z,5.90
2023-04-21T02:55:29.570Z,5.90
2023-04-21T02:57:58.160Z,5.80
2023-04-21T03:00:27.482Z,5.80
2023-04-21T03:02:57.678Z,5.70
2023-04-21T03:05:26.369Z,5.60
2023-04-21T03:07:56.461Z,5.60
2023-04-21T03:10:25.321Z,5.50
2023-04-21T03:12:53.920Z,5.40
2023-04-21T03:15:22.902Z,5.40
2023-04-21T03:17:51.919Z,5.40
2023-04-21T03:20:20.712Z,5.40
2023-04-21T03:22:49.415Z,5.30
2023-04-21T03:25:19.616Z,5.30
2023-04-21T03:27:48.192Z,5.30
2023-04-21T03:30:16.894Z,5.40
2023-04-21T03:32:45.571Z,5.40
2023-04-21T03:35:14.399Z,5.40
2023-04-21T03:37:43.189Z,5.50
2023-04-21T03:40:13.149Z,5.40
2023-04-21T03:42:43.361Z,5.50
2023-04-21T03:45:12.228Z,5.50
2023-04-21T03:47:40.961Z,5.60
2023-04-21T03:50:10.361Z,5.70
2023-04-21T03:52:39.058Z,5.70
2023-04-21T03:55:11.758Z,5.80
2023-04-21T03:57:45.815Z,5.90
2023-04-21T04:00:15.597Z,6.20
2023-04-21T04:02:44.424Z,6.30
2023-04-21T04:05:13.436Z,6.40
2023-04-21T04:07:42.166Z,6.40
2023-04-21T04:10:11.903Z,6.50
2023-04-21T04:12:40.865Z,7.00
2023-04-21T04:15:11.457Z,7.30
2023-04-21T04:17:40.225Z,7.60
2023-04-21T04:20:10.035Z,7.80
2023-04-21T04:22:38.620Z,7.80
2023-04-21T04:25:07.582Z,7.70
2023-04-21T04:27:36.314Z,7.60
2023-04-21T04:30:05.856Z,7.60
2023-04-21T04:32:38.325Z,7.50
2023-04-21T04:35:08.347Z,7.50
2023-04-21T04:37:51.870Z,7.50
2023-04-21T04:40:20.875Z,7.50
2023-04-21T04:42:49.504Z,7.60
2023-04-21T04:45:18.094Z,7.60
2023-04-21T04:47:48.141Z,7.60
2023-04-21T04:50:16.743Z,7.60
2023-04-21T04:52:47.237Z,7.70
2023-04-21T04:55:15.947Z,7.80
2023-04-21T04:57:44.504Z,7.80
2023-04-21T05:00:14.687Z,7.90
2023-04-21T05:02:43.372Z,8.00
2023-04-21T05:05:13.665Z,8.10
2023-04-21T05:07:42.365Z,8.10
2023-04-21T05:10:11.161Z,8.20
2023-04-21T05:12:39.786Z,8.30
2023-04-21T05:15:09.406Z,8.40
2023-04-21T05:17:38.162Z,8.50
2023-04-21T05:20:07.607Z,8.50
2023-04-21T05:22:40.731Z,8.60
2023-04-21T05:25:11.637Z,8.70
2023-04-21T05:27:40.210Z,8.80
2023-04-21T05:30:09.932Z,8.90
2023-04-21T05:32:38.687Z,9.00
2023-04-21T05:35:08.240Z,9.10
2023-04-21T05:37:37.144Z,9.10
2023-04-21T05:40:08.188Z,9.20
2023-04-21T05:42:36.767Z,9.30
2023-04-21T05:45:06.639Z,9.30
2023-04-21T05:47:35.480Z,9.40
2023-04-21T05:50:04.217Z,9.60
2023-04-21T05:52:32.948Z,9.60
2023-04-21T05:55:01.512Z,9.80
2023-04-21T05:57:32.426Z,9.80
2023-04-21T06:00:01.007Z,10.00
2023-04-21T06:02:29.794Z,10.10
2023-04-21T06:04:58.632Z,10.20
2023-04-21T06:07:27.490Z,10.20
2023-04-21T06:09:58.090Z,10.30
2023-04-21T06:12:26.863Z,10.30
2023-04-21T06:14:57.909Z,10.10
2023-04-21T06:17:26.713Z,10.60
2023-04-21T06:19:56.224Z,10.70
2023-04-21T06:22:24.861Z,10.70
2023-04-21T06:24:53.556Z,10.80
2023-04-21T06:27:22.137Z,10.90
2023-04-21T06:29:55.577Z,11.10
2023-04-21T06:32:25.689Z,11.30
2023-04-21T06:34:54.752Z,11.40
2023-04-21T06:37:23.377Z,11.40
2023-04-21T06:39:51.924Z,11.40
2023-04-21T06:42:20.578Z,11.50
2023-04-21T06:44:50.820Z,11.70
2023-04-21T06:47:19.852Z,11.60
2023-04-21T06:49:49.885Z,11.90
2023-04-21T06:52:20.182Z,12.00
2023-04-21T06:54:48.940Z,12.10
2023-04-21T06:57:17.701Z,12.10
2023-04-21T06:59:46.436Z,12.20
2023-04-21T07:02:15.207Z,12.20
2023-04-21T07:04:44.029Z,12.40
2023-04-21T07:07:14.575Z,12.40
2023-04-21T07:09:43.269Z,12.40
2023-04-21T07:12:11.812Z,12.50
2023-04-21T07:14:40.534Z,12.70
2023-04-21T07:17:09.293Z,12.90
2023-04-21T07:19:38.062Z,13.10
2023-04-21T07:22:06.734Z,13.10
2023-04-21T07:24:37.624Z,13.10
2023-04-21T07:27:06.471Z,13.20
2023-04-21T07:29:35.144Z,13.30
2023-04-21T07:32:03.759Z,13.30
2023-04-21T07:34:32.561Z,13.40
2023-04-21T07:37:01.146Z,13.40
2023-04-21T07:39:29.774Z,13.60
2023-04-21T07:41:59.848Z,13.70
2023-04-21T07:44:29.549Z,13.80
2023-04-21T07:46:58.242Z,13.90
2023-04-21T07:49:27.086Z,13.90
2023-04-21T07:51:55.904Z,13.90
2023-04-21T07:54:24.482Z,14.20
2023-04-21T07:56:53.008Z,14.30
2023-04-21T07:59:23.061Z,14.30
2023-04-21T08:01:52.138Z,14.50
2023-04-21T08:04:21.036Z,14.60
2023-04-21T08:06:50.021Z,14.70
2023-04-21T08:09:19.097Z,14.70
2023-04-21T08:11:47.838Z,14.70
2023-04-21T08:14:16.547Z,14.90
2023-04-21T08:16:46.609Z,15.00
2023-04-21T08:19:15.397Z,15.00
2023-04-21T08:21:44.092Z,15.00
2023-04-21T08:24:12.860Z,15.10
2023-04-21T08:26:41.601Z,15.00
2023-04-21T08:29:10.915Z,15.20
2023-04-21T08:31:39.724Z,15.20
2023-04-21T08:34:09.850Z,15.30
2023-04-21T08:36:38.518Z,15.40
2023-04-21T08:39:07.675Z,15.50
2023-04-21T08:41:36.353Z,15.40
2023-04-21T08:44:06.177Z,15.50
2023-04-21T08:46:36.447Z,15.70
2023-04-21T08:49:05.343Z,15.90
2023-04-21T08:51:35.603Z,15.90
2023-04-21T08:54:04.230Z,15.90
2023-04-21T08:56:32.789Z,15.90
2023-04-21T08:59:01.424Z,15.80
2023-04-21T09:01:30.170Z,15.80
2023-04-21T09:04:18.028Z,15.80
2023-04-21T09:06:48.415Z,16.00
2023-04-21T09:09:17.413Z,16.00
2023-04-21T09:11:46.150Z,16.10
2023-04-21T09:14:14.839Z,16.10
2023-04-21T09:16:45.524Z,16.20
2023-04-21T09:19:16.819Z,16.50
2023-04-21T09:21:47.474Z,16.50
2023-04-21T09:24:16.614Z,16.50
2023-04-21T09:26:45.202Z,16.50
2023-04-21T09:29:13.898Z,16.40
2023-04-21T09:31:42.618Z,16.30
2023-04-21T09:34:20.770Z,16.20
2023-04-21T09:36:50.991Z,16.20
2023-04-21T09:39:38.282Z,16.20
2023-04-21T09:42:11.680Z,16.40
2023-04-21T09:44:51.947Z,16.50
2023-04-21T09:47:25.670Z,16.60
2023-04-21T09:49:54.606Z,16.70
2023-04-21T09:52:25.662Z,16.80
2023-04-21T09:55:01.596Z,16.90
2023-04-21T09:57:33.020Z,16.90
2023-04-21T10:00:05.450Z,16.90
2023-04-21T10:02:36.931Z,16.80
2023-04-21T10:05:08.230Z,16.90
2023-04-21T10:07:38.289Z,16.90
2023-04-21T10:10:10.494Z,16.80
2023-04-21T10:12:39.884Z,16.70
2023-04-21T10:15:32.982Z,16.80
2023-04-21T10:18:30.399Z,17.00
2023-04-21T10:21:02.871Z,17.10
2023-04-21T10:23:37.969Z,17.20
2023-04-21T10:26:11.893Z,17.10
2023-04-21T10:28:45.071Z,17.10
2023-04-21T10:31:24.716Z,17.10
2023-04-21T10:34:18.747Z,17.10
2023-04-21T10:37:16.348Z,17.20
2023-04-21T10:39:57.373Z,17.30
2023-04-21T10:42:31.428Z,17.40
2023-04-21T10:45:08.182Z,17.50
2023-04-21T10:47:45.886Z,17.50
2023-04-21T10:50:20.532Z,17.60
2023-04-21T10:52:54.891Z,17.70
2023-04-21T10:55:28.501Z,17.70
2023-04-21T10:57:57.375Z,17.60
2023-04-21T11:00:27.281Z,17.70
2023-04-21T11:02:58.360Z,17.70
2023-04-21T11:05:36.585Z,17.60
2023-04-21T11:08:15.876Z,17.60
2023-04-21T11:10:54.635Z,17.70
2023-04-21T11:13:25.003Z,17.80
2023-04-21T11:16:06.482Z,17.80
2023-04-21T11:18:42.153Z,17.80
2023-04-21T11:21:13.492Z,17.80
2023-04-21T11:23:43.113Z,17.80
2023-04-21T11:26:13.426Z,17.80
2023-04-21T11:28:43.153Z,17.80
2023-04-21T11:31:12.135Z,17.80
2023-04-21T11:33:41.172Z,17.70
2023-04-21T11:36:10.558Z,17.50
2023-04-21T11:38:40.881Z,17.60
2023-04-21T11:41:11.183Z,17.70
2023-04-21T11:43:41.284Z,17.80
2023-04-21T11:46:14.539Z,17.80
2023-04-21T11:48:44.470Z,17.80
2023-04-21T11:51:18.325Z,17.80
2023-04-21T11:53:49.296Z,18.00
2023-04-21T11:56:21.937Z,18.20
2023-04-21T11:58:53.753Z,18.20
2023-04-21T12:01:23.157Z,18.20
2023-04-21T12:03:56.021Z,18.40
2023-04-21T12:06:26.229Z,18.50
2023-04-21T12:08:59.082Z,18.40
2023-04-21T12:11:29.117Z,18.40
2023-04-21T12:14:00.704Z,18.40
2023-04-21T12:16:30.511Z,18.30
2023-04-21T12:18:59.166Z,18.30
2023-04-21T12:21:31.112Z,18.30
2023-04-21T12:23:59.686Z,18.30
2023-04-21T12:26:28.365Z,18.40
2023-04-21T12:28:56.911Z,18.40
2023-04-21T12:31:26.966Z,18.40
2023-04-21T12:33:55.549Z,18.40
2023-04-21T12:36:26.235Z,18.30
2023-04-21T12:38:55.005Z,18.20
2023-04-21T12:41:23.549Z,18.30
2023-04-21T12:43:52.399Z,18.40
2023-04-21T12:46:21.443Z,18.50
2023-04-21T12:48:52.562Z,18.40
2023-04-21T12:51:21.231Z,18.40
2023-04-21T12:53:49.908Z,18.20
2023-04-21T12:56:18.450Z,18.10
2023-04-21T12:58:48.503Z,18.20
2023-04-21T13:01:17.132Z,18.30
2023-04-21T13:03:46.161Z,18.40
2023-04-21T13:06:16.540Z,18.40
2023-04-21T13:08:45.228Z,18.50
2023-04-21T13:11:13.990Z,18.50
2023-04-21T13:13:42.620Z,18.60
2023-04-21T13:16:11.257Z,18.60
2023-04-21T13:18:40.084Z,18.50
2023-04-21T13:21:08.752Z,18.40
2023-04-21T13:23:38.808Z,18.40
2023-04-21T13:26:08.056Z,18.50
2023-04-21T13:28:36.882Z,18.50
2023-04-21T13:31:05.972Z,18.50
2023-04-21T13:33:35.570Z,18.70
2023-04-21T13:36:04.634Z,18.70
2023-04-21T13:38:34.300Z,18.70
2023-04-21T13:41:04.366Z,18.70
2023-04-21T13:43:33.155Z,18.70
2023-04-21T13:46:01.923Z,18.70
2023-04-21T13:48:30.927Z,18.70
2023-04-21T13:50:59.589Z,18.60
2023-04-21T13:53:28.166Z,18.60
2023-04-21T13:55:57.747Z,18.40
2023-04-21T13:58:28.013Z,18.30
2023-04-21T14:00:56.722Z,18.40
2023-04-21T14:03:25.397Z,18.50
2023-04-21T14:05:54.239Z,18.50
2023-04-21T14:08:23.315Z,18.50
2023-04-21T14:10:52.421Z,18.60
2023-04-21T14:13:33.895Z,18.60
2023-04-21T14:16:09.292Z,18.70
2023-04-21T14:18:40.877Z,18.80
2023-04-21T14:21:09.484Z,18.80
2023-04-21T14:23:38.068Z,18.70
2023-04-21T14:26:07.291Z,18.60
2023-04-21T14:28:35.918Z,18.60
2023-04-21T14:31:04.592Z,18.50
2023-04-21T14:33:35.524Z,18.60
2023-04-21T14:36:04.303Z,18.70
2023-04-21T14:38:34.579Z,18.70
2023-04-21T14:41:03.397Z,18.70
2023-04-21T14:43:32.802Z,18.80
2023-04-21T14:46:01.445Z,18.90
2023-04-21T14:48:30.076Z,18.90
2023-04-21T14:51:00.206Z,18.90
2023-04-21T14:53:28.827Z,19.00
2023-04-21T14:55:57.596Z,18.90
2023-04-21T14:58:26.314Z,19.00
2023-04-21T15:00:54.959Z,19.10
2023-04-21T15:03:23.661Z,19.10
2023-04-21T15:05:52.476Z,19.10
2023-04-21T15:08:22.617Z,19.30
2023-04-21T15:10:51.906Z,19.30
2023-04-21T15:13:20.530Z,19.30
2023-04-21T15:15:50.289Z,19.50
2023-04-21T15:18:18.997Z,19.60
2023-04-21T15:20:47.657Z,19.60
2023-04-21T15:23:16.772Z,19.60
2023-04-21T15:25:46.944Z,19.70
2023-04-21T15:28:15.549Z,19.70
2023-04-21T15:30:44.256Z,19.60
2023-04-21T15:33:12.978Z,19.50
2023-04-21T15:35:41.708Z,19.50
2023-04-21T15:38:10.310Z,19.40
2023-04-21T15:40:49.602Z,19.30
2023-04-21T15:43:29.343Z,19.20
2023-04-21T15:45:58.306Z,19.20
2023-04-21T15:48:27.154Z,19.10
2023-04-21T15:50:55.770Z,19.10
2023-04-21T15:53:26.559Z,19.00
2023-04-21T15:55:55.306Z,18.90
2023-04-21T15:58:24.312Z,18.90
2023-04-21T16:00:57.777Z,18.80
2023-04-21T16:03:30.364Z,18.80
2023-04-21T16:06:01.457Z,18.70
2023-04-21T16:08:34.577Z,18.70
2023-04-21T16:11:03.980Z,18.60
2023-04-21T16:13:36.041Z,18.30
2023-04-21T16:16:07.353Z,18.50
2023-04-21T16:18:41.463Z,18.40
2023-04-21T16:21:11.032Z,18.30
2023-04-21T16:23:43.961Z,18.30
2023-04-21T16:26:13.228Z,18.30
2023-04-21T16:28:43.014Z,18.20
2023-04-21T16:31:17.038Z,18.10
2023-04-21T16:33:46.381Z,18.00
2023-04-21T16:36:15.983Z,18.00
2023-04-21T16:39:26.646Z,17.90
2023-04-21T16:42:20.412Z,17.70
2023-04-21T16:45:18.305Z,17.60
2023-04-21T16:48:02.374Z,17.40
2023-04-21T16:51:27.416Z,17.50
2023-04-21T16:53:57.004Z,17.60
2023-04-21T16:56:47.110Z,17.30
2023-04-21T16:59:37.681Z,17.20
2023-04-21T17:02:12.375Z,17.10
2023-04-21T17:04:42.904Z,17.00
2023-04-21T17:07:15.213Z,16.90
2023-04-21T17:09:44.305Z,16.80
2023-04-21T17:12:13.380Z,16.70
2023-04-21T17:14:45.696Z,16.50
2023-04-21T17:17:15.195Z,16.50
2023-04-21T17:19:49.387Z,16.20
2023-04-21T17:22:21.148Z,16.20
2023-04-21T17:24:53.647Z,16.10
2023-04-21T17:27:28.667Z,16.00
2023-04-21T17:29:59.979Z,15.80
2023-04-21T17:32:33.262Z,15.60
2023-04-21T17:35:05.183Z,15.70
2023-04-21T17:37:35.352Z,15.30
2023-04-21T17:40:07.368Z,15.10
2023-04-21T17:42:36.255Z,14.80
2023-04-21T17:45:06.190Z,14.60
2023-04-21T17:47:36.378Z,14.40
2023-04-21T17:50:09.487Z,14.30
2023-04-21T17:52:38.412Z,14.20
2023-04-21T17:55:10.883Z,14.10
2023-04-21T17:57:41.788Z,14.00
2023-04-21T18:00:12.022Z,13.90
2023-04-21T18:02:40.871Z,13.70
2023-04-21T18:05:13.826Z,13.60
2023-04-21T18:07:43.398Z,13.50
2023-04-21T18:10:12.383Z,13.40
2023-04-21T18:12:41.127Z,13.30
2023-04-21T18:15:11.880Z,13.20
2023-04-21T18:17:42.909Z,12.90
2023-04-21T18:20:15.227Z,12.90
2023-04-21T18:22:45.156Z,12.40
2023-04-21T18:25:14.475Z,12.70
2023-04-21T18:27:43.314Z,12.50
2023-04-21T18:30:12.277Z,12.40
2023-04-21T18:32:41.882Z,12.30
2023-04-21T18:35:11.132Z,12.20
2023-04-21T18:37:41.269Z,12.10
2023-04-21T18:40:11.359Z,11.90
2023-04-21T18:42:43.069Z,11.80
2023-04-21T18:45:12.687Z,11.70
2023-04-21T18:47:41.574Z,11.70
2023-04-21T18:50:11.405Z,11.50
2023-04-21T18:52:41.491Z,11.40
2023-04-21T18:55:11.022Z,11.30
2023-04-21T18:57:39.594Z,11.20
2023-04-21T19:00:10.422Z,10.80
2023-04-21T19:02:39.758Z,11.00
2023-04-21T19:05:08.945Z,10.90
2023-04-21T19:07:37.596Z,10.80
2023-04-21T19:10:15.301Z,10.70
2023-04-21T19:12:44.047Z,10.60
2023-04-21T19:15:15.783Z,10.50
2023-04-21T19:17:47.828Z,10.40
2023-04-21T19:20:28.577Z,9.70
2023-04-21T19:22:59.304Z,10.20
2023-04-21T19:25:29.813Z,10.10
2023-04-21T19:27:59.032Z,10.10
2023-04-21T19:30:28.216Z,10.00
2023-04-21T19:32:57.361Z,10.00
2023-04-21T19:35:26.780Z,9.90
2023-04-21T19:37:55.545Z,9.80
2023-04-21T19:40:24.428Z,9.80
2023-04-21T19:42:54.983Z,9.70
2023-04-21T19:45:23.871Z,9.60
2023-04-21T19:47:55.381Z,9.60
2023-04-21T19:50:24.587Z,9.50
2023-04-21T19:52:53.427Z,9.50
2023-04-21T19:55:22.468Z,9.20
2023-04-21T19:57:51.550Z,9.30
2023-04-21T20:00:22.201Z,9.20
2023-04-21T20:02:51.247Z,9.20
2023-04-21T20:05:20.619Z,9.20
2023-04-21T20:07:49.815Z,9.20
2023-04-21T20:10:26.086Z,9.10
2023-04-21T20:12:55.042Z,9.10
2023-04-21T20:15:27.615Z,9.10
2023-04-21T20:17:56.812Z,9.00
2023-04-21T20:20:25.497Z,9.00
2023-04-21T20:22:54.597Z,9.00
2023-04-21T20:25:23.758Z,9.00
2023-04-21T20:27:55.712Z,9.00
2023-04-21T20:30:26.529Z,9.00
2023-04-21T20:33:15.660Z,9.10
2023-04-21T20:35:49.404Z,9.10
2023-04-21T20:38:39.148Z,9.00
2023-04-21T20:41:09.513Z,9.00
2023-04-21T20:43:48.187Z,9.10
2023-04-21T20:46:24.429Z,9.20
2023-04-21T20:49:07.898Z,9.20
2023-04-21T20:51:41.407Z,9.10
2023-04-21T20:54:10.093Z,9.10
2023-04-21T20:56:38.714Z,9.00
2023-04-21T20:59:07.285Z,9.00
2023-04-21T21:01:39.956Z,8.90
2023-04-21T21:04:08.713Z,8.80
2023-04-21T21:06:37.504Z,8.80
2023-04-21T21:09:06.332Z,8.80
2023-04-21T21:11:34.923Z,8.80
2023-04-21T21:14:03.627Z,8.70
2023-04-21T21:16:32.296Z,8.60
2023-04-21T21:19:03.268Z,8.60
2023-04-21T21:21:31.924Z,8.50
2023-04-21T21:24:00.615Z,8.40
2023-04-21T21:26:29.255Z,8.40
2023-04-21T21:28:58.271Z,8.30
2023-04-21T21:31:26.989Z,8.30
2023-04-21T21:33:55.663Z,8.20
2023-04-21T21:36:26.407Z,8.20
2023-04-21T21:38:55.046Z,8.10
2023-04-21T21:41:23.723Z,8.00
2023-04-21T21:43:52.336Z,8.00
2023-04-21T21:46:22.341Z,7.90
2023-04-21T21:48:50.998Z,7.80
2023-04-21T21:51:19.876Z,7.70
2023-04-21T21:53:49.855Z,7.70
2023-04-21T21:56:20.509Z,7.60
2023-04-21T21:58:49.278Z,7.50
2023-04-21T22:01:18.423Z,7.50
2023-04-21T22:03:47.458Z,7.40
2023-04-21T22:06:17.312Z,7.30
2023-04-21T22:08:46.203Z,7.30
2023-04-21T22:11:16.613Z,7.30
2023-04-21T22:13:45.247Z,7.20
2023-04-21T22:16:14.296Z,7.20
2023-04-21T22:18:43.218Z,7.20
2023-04-21T22:21:11.914Z,7.20
2023-04-21T22:23:40.635Z,7.10
2023-04-21T22:26:09.815Z,7.10
2023-04-21T22:28:41.967Z,7.10
2023-04-21T22:31:10.721Z,7.00
2023-04-21T22:33:39.383Z,6.90
2023-04-21T22:36:09.995Z,6.90
2023-04-21T22:38:39.105Z,6.80
2023-04-21T22:41:08.194Z,6.80
2023-04-21T22:43:36.877Z,6.70
2023-04-21T22:46:07.696Z,6.70
2023-04-21T22:48:38.445Z,6.70
2023-04-21T22:51:07.701Z,7.00
2023-04-21T22:53:36.781Z,6.60
2023-04-21T22:56:05.843Z,6.60
2023-04-21T22:58:34.468Z,6.60
2023-04-21T23:01:03.333Z,6.50
2023-04-21T23:03:33.656Z,6.40
2023-04-21T23:06:02.434Z,6.40
2023-04-21T23:08:31.033Z,6.30
2023-04-21T23:10:59.898Z,6.30
2023-04-21T23:13:28.541Z,6.20
2023-04-21T23:15:57.292Z,6.20
2023-04-21T23:18:26.011Z,6.20
2023-04-21T23:20:56.164Z,6.10
2023-04-21T23:23:24.785Z,6.10
2023-04-21T23:25:53.552Z,6.10
2023-04-21T23:28:22.215Z,6.10
2023-04-21T23:30:50.833Z,6.00
2023-04-21T23:33:19.518Z,6.00
2023-04-21T23:35:48.398Z,6.00
2023-04-21T23:38:18.402Z,6.00
2023-04-21T23:40:46.983Z,6.00
2023-04-21T23:43:15.578Z,6.00
2023-04-21T23:45:44.373Z,5.90
2023-04-21T23:48:13.080Z,5.90
2023-04-21T23:50:41.650Z,5.80
2023-04-21T23:53:10.324Z,5.80
2023-04-21T23:55:40.404Z,5.70
2023-04-21T23:58:09.037Z,5.70
